Portada
METAR-TAF:

METAR-TAF

Aeropuertos :

Mont-De-Marsan, Francia

latitud: 43-55N, longitud: 000-30W, altitud: 62 m

Observación

El informe se hizo hace 35 minutos, a las 04:00 UTC
Viento 4 kt del noreste, variando entre norte y este
Temperatura 16°C
Humedad 82%
Presión 1014 hPa
Visibilidad 10 km o más
Cielo nuboso a una altura de 3400 ft
Cielo nuboso a una altura de 5000 ft
Cielo cubierto a una altura de 11000 ft

METAR: LFBM 210400Z AUTO 05004KT 010V080 9999 BKN034 BKN050 OVC110 16/13 Q1014

Hora: 06:35 (04:35 UTC)

Pronóstico

El informe se hizo hace 14 horas y 35 minutos, a las 14:00 UTC
Pronóstico válido del 20 a las 15 UTC al 21 a las 15 UTC
Viento 5 kt del noroeste
Visibilidad 10 km o más
Nubes dispersas a una altura de 2500 ft
Cielo cubierto a una altura de 3500 ft

TAF: LFBM 201400Z 2015/2115 32005KT 9999 SCT025 OVC035

Observaciones y pronósticos meteorológicos de más de 4000 aeropuertos (mensajes METAR y TAF).

Los puntos amarillos y rojos representan las estaciones disponibles.

Ponga el ratón en el punto deseado para ver el nombre de la estación.

Haga clic para ver las observaciones y los pronósticos meteorológicos.

Para cambiar el mapa : haga clic en los botones verdes con una cruz de color negro para hacer un zoom, en el botón verde con un guión para alejar o en las flechas verdes para mapas adyacentes.


METAR-TAF: